sensor_id;sensor_type;location;lat;lon;timestamp;pressure;altitude;pressure_sealevel;temperature;humidity
6423;BME280;3244;42.708;23.288;2023-04-01T00:01:26;94175.69;;;12.71;59.31
6423;BME280;3244;42.708;23.288;2023-04-01T00:03:53;94182.84;;;12.80;59.37
6423;BME280;3244;42.708;23.288;2023-04-01T00:06:21;94187.22;;;12.63;59.68
6423;BME280;3244;42.708;23.288;2023-04-01T00:08:48;94182.94;;;12.63;59.57
6423;BME280;3244;42.708;23.288;2023-04-01T00:11:15;94188.94;;;12.62;60.06
6423;BME280;3244;42.708;23.288;2023-04-01T00:13:44;94181.72;;;12.54;60.19
6423;BME280;3244;42.708;23.288;2023-04-01T00:16:11;94192.66;;;12.56;60.65
6423;BME280;3244;42.708;23.288;2023-04-01T00:18:38;94181.06;;;12.51;60.37
6423;BME280;3244;42.708;23.288;2023-04-01T00:21:05;94181.97;;;12.50;60.28
6423;BME280;3244;42.708;23.288;2023-04-01T00:23:32;94178.50;;;12.67;60.07
6423;BME280;3244;42.708;23.288;2023-04-01T00:25:59;94173.63;;;12.62;59.49
6423;BME280;3244;42.708;23.288;2023-04-01T00:28:26;94178.44;;;12.52;60.17
6423;BME280;3244;42.708;23.288;2023-04-01T00:30:54;94173.75;;;12.45;60.48
6423;BME280;3244;42.708;23.288;2023-04-01T00:33:21;94171.13;;;12.46;60.43
6423;BME280;3244;42.708;23.288;2023-04-01T00:35:48;94172.63;;;12.35;60.61
6423;BME280;3244;42.708;23.288;2023-04-01T00:38:15;94168.81;;;12.42;60.25
6423;BME280;3244;42.708;23.288;2023-04-01T00:40:45;94161.88;;;12.30;60.54
6423;BME280;3244;42.708;23.288;2023-04-01T00:43:14;94157.69;;;12.29;61.25
6423;BME280;3244;42.708;23.288;2023-04-01T00:45:44;94158.66;;;12.26;61.32
6423;BME280;3244;42.708;23.288;2023-04-01T00:48:15;94153.06;;;11.88;62.14
6423;BME280;3244;42.708;23.288;2023-04-01T00:50:45;94154.16;;;11.67;63.33
6423;BME280;3244;42.708;23.288;2023-04-01T00:53:14;94141.44;;;11.51;64.15
6423;BME280;3244;42.708;23.288;2023-04-01T00:55:43;94143.47;;;11.44;64.60
6423;BME280;3244;42.708;23.288;2023-04-01T00:58:15;94135.06;;;11.42;63.97
6423;BME280;3244;42.708;23.288;2023-04-01T01:00:45;94125.72;;;11.43;64.20
6423;BME280;3244;42.708;23.288;2023-04-01T01:03:15;94127.22;;;11.47;64.11
6423;BME280;3244;42.708;23.288;2023-04-01T01:06:09;94125.84;;;11.24;65.73
6423;BME280;3244;42.708;23.288;2023-04-01T01:08:52;94115.53;;;11.27;65.03
6423;BME280;3244;42.708;23.288;2023-04-01T01:11:27;94111.06;;;11.15;65.78
6423;BME280;3244;42.708;23.288;2023-04-01T01:14:01;94106.22;;;11.10;66.12
6423;BME280;3244;42.708;23.288;2023-04-01T01:16:32;94101.78;;;11.14;65.80
6423;BME280;3244;42.708;23.288;2023-04-01T01:19:07;94098.69;;;11.09;66.29
6423;BME280;3244;42.708;23.288;2023-04-01T01:21:58;94103.44;;;11.15;66.34
6423;BME280;3244;42.708;23.288;2023-04-01T01:24:43;94099.41;;;11.11;66.96
6423;BME280;3244;42.708;23.288;2023-04-01T01:27:18;94086.19;;;11.37;66.38
6423;BME280;3244;42.708;23.288;2023-04-01T01:30:15;94080.09;;;11.40;66.14
6423;BME280;3244;42.708;23.288;2023-04-01T01:33:13;94080.75;;;11.43;66.21
6423;BME280;3244;42.708;23.288;2023-04-01T01:35:48;94083.47;;;11.40;66.29
6423;BME280;3244;42.708;23.288;2023-04-01T01:38:17;94083.97;;;11.31;66.48
6423;BME280;3244;42.708;23.288;2023-04-01T01:40:48;94085.19;;;11.40;66.32
6423;BME280;3244;42.708;23.288;2023-04-01T01:43:21;94085.09;;;11.41;65.91
6423;BME280;3244;42.708;23.288;2023-04-01T01:45:52;94081.19;;;11.51;65.92
6423;BME280;3244;42.708;23.288;2023-04-01T01:48:21;94094.66;;;11.53;65.82
6423;BME280;3244;42.708;23.288;2023-04-01T01:50:51;94086.44;;;11.64;65.39
6423;BME280;3244;42.708;23.288;2023-04-01T01:53:18;94083.34;;;11.59;65.51
6423;BME280;3244;42.708;23.288;2023-04-01T01:55:45;94081.03;;;11.54;65.99
6423;BME280;3244;42.708;23.288;2023-04-01T01:58:17;94076.38;;;11.63;65.52
6423;BME280;3244;42.708;23.288;2023-04-01T02:00:48;94078.41;;;11.72;65.47
6423;BME280;3244;42.708;23.288;2023-04-01T02:03:17;94078.41;;;11.72;65.59
6423;BME280;3244;42.708;23.288;2023-04-01T02:05:47;94075.41;;;11.81;65.65
6423;BME280;3244;42.708;23.288;2023-04-01T02:08:21;94070.84;;;11.70;66.14
6423;BME280;3244;42.708;23.288;2023-04-01T02:10:56;94056.69;;;11.82;65.44
6423;BME280;3244;42.708;23.288;2023-04-01T02:13:28;94067.63;;;11.67;65.76
6423;BME280;3244;42.708;23.288;2023-04-01T02:16:00;94058.44;;;11.64;65.99
6423;BME280;3244;42.708;23.288;2023-04-01T02:18:30;94056.31;;;11.88;65.22
6423;BME280;3244;42.708;23.288;2023-04-01T02:21:00;94056.97;;;11.91;64.77
6423;BME280;3244;42.708;23.288;2023-04-01T02:23:28;94049.28;;;11.77;65.06
6423;BME280;3244;42.708;23.288;2023-04-01T02:25:55;94052.41;;;11.82;64.44
6423;BME280;3244;42.708;23.288;2023-04-01T02:28:23;94053.06;;;11.86;64.52
6423;BME280;3244;42.708;23.288;2023-04-01T02:30:51;94058.97;;;12.02;64.24
6423;BME280;3244;42.708;23.288;2023-04-01T02:33:19;94062.41;;;12.01;64.27
6423;BME280;3244;42.708;23.288;2023-04-01T02:35:46;94046.63;;;12.10;63.52
6423;BME280;3244;42.708;23.288;2023-04-01T02:38:13;94060.59;;;12.03;63.56
6423;BME280;3244;42.708;23.288;2023-04-01T02:40:45;94057.31;;;12.01;63.85
6423;BME280;3244;42.708;23.288;2023-04-01T02:43:12;94068.97;;;12.05;63.78
6423;BME280;3244;42.708;23.288;2023-04-01T02:45:39;94072.25;;;12.07;63.81
6423;BME280;3244;42.708;23.288;2023-04-01T02:48:05;94067.34;;;12.04;64.10
6423;BME280;3244;42.708;23.288;2023-04-01T02:50:32;94077.28;;;12.09;63.60
6423;BME280;3244;42.708;23.288;2023-04-01T02:52:59;94086.38;;;11.97;63.72
6423;BME280;3244;42.708;23.288;2023-04-01T02:55:28;94090.03;;;11.77;64.43
6423;BME280;3244;42.708;23.288;2023-04-01T02:57:57;94078.00;;;11.95;64.06
6423;BME280;3244;42.708;23.288;2023-04-01T03:00:23;94080.34;;;11.84;64.73
6423;BME280;3244;42.708;23.288;2023-04-01T03:02:50;94080.94;;;11.72;64.94
6423;BME280;3244;42.708;23.288;2023-04-01T03:05:17;94087.22;;;11.82;64.94
6423;BME280;3244;42.708;23.288;2023-04-01T03:07:44;94099.97;;;11.65;65.18
6423;BME280;3244;42.708;23.288;2023-04-01T03:10:11;94086.16;;;11.86;65.28
6423;BME280;3244;42.708;23.288;2023-04-01T03:12:38;94103.09;;;11.70;65.10
6423;BME280;3244;42.708;23.288;2023-04-01T03:15:08;94097.69;;;11.76;65.15
6423;BME280;3244;42.708;23.288;2023-04-01T03:17:36;94096.00;;;11.76;65.33
6423;BME280;3244;42.708;23.288;2023-04-01T03:20:03;94099.59;;;11.56;65.62
6423;BME280;3244;42.708;23.288;2023-04-01T03:22:30;94099.16;;;11.48;66.34
6423;BME280;3244;42.708;23.288;2023-04-01T03:24:57;94098.53;;;11.61;66.14
6423;BME280;3244;42.708;23.288;2023-04-01T03:27:23;94108.03;;;11.57;66.06
6423;BME280;3244;42.708;23.288;2023-04-01T03:29:50;94099.00;;;11.51;66.43
6423;BME280;3244;42.708;23.288;2023-04-01T03:32:18;94106.19;;;11.43;66.67
6423;BME280;3244;42.708;23.288;2023-04-01T03:34:45;94094.56;;;11.55;66.17
6423;BME280;3244;42.708;23.288;2023-04-01T03:37:11;94090.69;;;11.48;66.77
6423;BME280;3244;42.708;23.288;2023-04-01T03:39:39;94085.53;;;11.49;66.97
6423;BME280;3244;42.708;23.288;2023-04-01T03:42:06;94072.56;;;11.54;68.05
6423;BME280;3244;42.708;23.288;2023-04-01T03:44:33;94056.81;;;11.63;68.06
6423;BME280;3244;42.708;23.288;2023-04-01T03:47:00;94032.91;;;11.66;68.22
6423;BME280;3244;42.708;23.288;2023-04-01T03:49:28;94029.88;;;11.75;66.44
6423;BME280;3244;42.708;23.288;2023-04-01T03:51:55;94028.91;;;11.62;66.57
6423;BME280;3244;42.708;23.288;2023-04-01T03:54:21;94019.47;;;11.48;66.65
6423;BME280;3244;42.708;23.288;2023-04-01T03:56:48;94010.78;;;11.52;67.01
6423;BME280;3244;42.708;23.288;2023-04-01T03:59:15;93999.78;;;11.51;66.39
6423;BME280;3244;42.708;23.288;2023-04-01T04:01:42;93989.44;;;11.54;66.75
6423;BME280;3244;42.708;23.288;2023-04-01T04:04:10;93992.47;;;11.61;67.10
6423;BME280;3244;42.708;23.288;2023-04-01T04:06:39;93984.09;;;11.59;67.34
6423;BME280;3244;42.708;23.288;2023-04-01T04:09:06;93978.56;;;11.67;66.72
6423;BME280;3244;42.708;23.288;2023-04-01T04:11:33;93983.41;;;11.71;66.48
6423;BME280;3244;42.708;23.288;2023-04-01T04:14:00;93969.28;;;11.66;66.59
6423;BME280;3244;42.708;23.288;2023-04-01T04:16:27;93968.41;;;11.67;65.70
6423;BME280;3244;42.708;23.288;2023-04-01T04:18:54;93967.34;;;11.55;66.28
6423;BME280;3244;42.708;23.288;2023-04-01T04:21:20;93961.03;;;11.46;67.01
6423;BME280;3244;42.708;23.288;2023-04-01T04:23:49;93955.78;;;11.49;67.25
6423;BME280;3244;42.708;23.288;2023-04-01T04:26:15;93944.03;;;11.63;66.58
6423;BME280;3244;42.708;23.288;2023-04-01T04:28:42;93953.78;;;11.86;66.09
6423;BME280;3244;42.708;23.288;2023-04-01T04:31:09;93956.16;;;11.73;65.85
6423;BME280;3244;42.708;23.288;2023-04-01T04:33:36;93967.31;;;11.71;66.45
6423;BME280;3244;42.708;23.288;2023-04-01T04:36:03;93962.91;;;11.43;66.19
6423;BME280;3244;42.708;23.288;2023-04-01T04:38:30;93941.44;;;11.33;66.96
6423;BME280;3244;42.708;23.288;2023-04-01T04:40:59;93936.41;;;11.47;66.55
6423;BME280;3244;42.708;23.288;2023-04-01T04:43:25;93931.09;;;11.51;66.11
6423;BME280;3244;42.708;23.288;2023-04-01T04:45:52;93940.84;;;11.43;66.42
6423;BME280;3244;42.708;23.288;2023-04-01T04:48:19;93943.56;;;11.40;66.58
6423;BME280;3244;42.708;23.288;2023-04-01T04:50:46;93936.00;;;11.54;66.48
6423;BME280;3244;42.708;23.288;2023-04-01T04:53:13;93916.75;;;11.65;66.32
6423;BME280;3244;42.708;23.288;2023-04-01T04:55:43;93918.25;;;11.84;65.20
6423;BME280;3244;42.708;23.288;2023-04-01T04:58:11;93914.88;;;11.84;65.06
6423;BME280;3244;42.708;23.288;2023-04-01T05:00:38;93923.16;;;11.72;64.59
6423;BME280;3244;42.708;23.288;2023-04-01T05:03:05;93924.41;;;11.65;65.02
6423;BME280;3244;42.708;23.288;2023-04-01T05:05:33;93902.88;;;11.70;65.62
6423;BME280;3244;42.708;23.288;2023-04-01T05:08:00;93912.97;;;11.87;65.19
6423;BME280;3244;42.708;23.288;2023-04-01T05:10:27;93899.09;;;12.07;65.08
6423;BME280;3244;42.708;23.288;2023-04-01T05:12:54;93895.75;;;12.07;63.26
6423;BME280;3244;42.708;23.288;2023-04-01T05:15:22;93888.44;;;12.01;63.48
6423;BME280;3244;42.708;23.288;2023-04-01T05:17:49;93900.69;;;11.94;64.26
6423;BME280;3244;42.708;23.288;2023-04-01T05:20:16;93882.53;;;12.00;65.22
6423;BME280;3244;42.708;23.288;2023-04-01T05:22:43;93875.94;;;12.12;65.12
6423;BME280;3244;42.708;23.288;2023-04-01T05:25:09;93879.22;;;12.28;64.18
6423;BME280;3244;42.708;23.288;2023-04-01T05:27:36;93858.28;;;12.51;63.21
6423;BME280;3244;42.708;23.288;2023-04-01T05:30:04;93867.44;;;12.82;61.96
6423;BME280;3244;42.708;23.288;2023-04-01T05:32:32;93862.03;;;14.07;59.04
6423;BME280;3244;42.708;23.288;2023-04-01T05:34:59;93881.88;;;15.99;54.83
6423;BME280;3244;42.708;23.288;2023-04-01T05:37:26;93868.34;;;17.85;49.95
6423;BME280;3244;42.708;23.288;2023-04-01T05:39:52;93856.94;;;19.01;46.55
6423;BME280;3244;42.708;23.288;2023-04-01T05:42:19;93860.88;;;20.69;43.34
6423;BME280;3244;42.708;23.288;2023-04-01T05:44:46;93853.16;;;22.05;38.94
6423;BME280;3244;42.708;23.288;2023-04-01T05:47:12;93853.31;;;22.73;37.03
6423;BME280;3244;42.708;23.288;2023-04-01T05:49:41;93849.22;;;22.96;35.18
6423;BME280;3244;42.708;23.288;2023-04-01T05:52:08;93832.72;;;23.05;35.09
6423;BME280;3244;42.708;23.288;2023-04-01T05:54:34;93840.09;;;23.93;33.83
6423;BME280;3244;42.708;23.288;2023-04-01T05:57:01;93850.13;;;24.61;31.80
6423;BME280;3244;42.708;23.288;2023-04-01T05:59:28;93837.06;;;24.85;31.61
6423;BME280;3244;42.708;23.288;2023-04-01T06:01:56;93851.47;;;24.00;31.30
6423;BME280;3244;42.708;23.288;2023-04-01T06:04:23;93847.66;;;23.54;32.10
6423;BME280;3244;42.708;23.288;2023-04-01T06:06:52;93844.50;;;24.25;30.88
6423;BME280;3244;42.708;23.288;2023-04-01T06:09:21;93835.53;;;26.00;28.94
6423;BME280;3244;42.708;23.288;2023-04-01T06:12:06;93840.44;;;27.58;26.70
6423;BME280;3244;42.708;23.288;2023-04-01T06:14:40;93830.06;;;26.85;26.30
6423;BME280;3244;42.708;23.288;2023-04-01T06:17:21;93832.56;;;24.71;28.75
6423;BME280;3244;42.708;23.288;2023-04-01T06:19:56;93848.88;;;22.14;32.43
6423;BME280;3244;42.708;23.288;2023-04-01T06:22:50;93840.84;;;21.09;34.77
6423;BME280;3244;42.708;23.288;2023-04-01T06:25:42;93841.44;;;20.75;36.22
6423;BME280;3244;42.708;23.288;2023-04-01T06:28:39;93838.69;;;20.40;36.16
6423;BME280;3244;42.708;23.288;2023-04-01T06:31:20;93839.28;;;19.95;37.45
6423;BME280;3244;42.708;23.288;2023-04-01T06:34:01;93829.28;;;19.53;37.37
6423;BME280;3244;42.708;23.288;2023-04-01T06:36:45;93842.50;;;19.39;38.18
6423;BME280;3244;42.708;23.288;2023-04-01T06:42:26;93839.38;;;18.76;38.97
6423;BME280;3244;42.708;23.288;2023-04-01T06:45:07;93829.19;;;17.93;41.08
6423;BME280;3244;42.708;23.288;2023-04-01T06:47:49;93821.25;;;17.32;42.61
6423;BME280;3244;42.708;23.288;2023-04-01T06:50:24;93820.34;;;17.11;43.29
6423;BME280;3244;42.708;23.288;2023-04-01T06:52:58;93819.97;;;16.72;44.13
6423;BME280;3244;42.708;23.288;2023-04-01T06:55:32;93806.69;;;16.78;44.23
6423;BME280;3244;42.708;23.288;2023-04-01T06:58:04;93791.72;;;16.83;44.77
6423;BME280;3244;42.708;23.288;2023-04-01T07:00:36;93809.13;;;16.69;44.78
6423;BME280;3244;42.708;23.288;2023-04-01T07:03:16;93814.38;;;16.56;45.47
6423;BME280;3244;42.708;23.288;2023-04-01T07:05:45;93809.69;;;16.27;46.28
6423;BME280;3244;42.708;23.288;2023-04-01T07:08:17;93816.34;;;16.30;46.66
6423;BME280;3244;42.708;23.288;2023-04-01T07:10:50;93813.19;;;16.49;46.67
6423;BME280;3244;42.708;23.288;2023-04-01T07:13:21;93788.13;;;16.52;46.77
6423;BME280;3244;42.708;23.288;2023-04-01T07:15:58;93797.81;;;16.49;47.08
6423;BME280;3244;42.708;23.288;2023-04-01T07:18:31;93801.16;;;16.60;47.16
6423;BME280;3244;42.708;23.288;2023-04-01T07:21:01;93811.56;;;16.70;47.32
6423;BME280;3244;42.708;23.288;2023-04-01T07:23:31;93811.69;;;16.69;47.12
6423;BME280;3244;42.708;23.288;2023-04-01T07:26:07;93795.00;;;16.52;47.69
6423;BME280;3244;42.708;23.288;2023-04-01T07:28:39;93791.75;;;16.39;48.36
6423;BME280;3244;42.708;23.288;2023-04-01T07:31:15;93789.41;;;16.36;48.52
6423;BME280;3244;42.708;23.288;2023-04-01T07:33:52;93830.69;;;16.32;48.63
6423;BME280;3244;42.708;23.288;2023-04-01T07:36:24;93821.78;;;16.14;48.40
6423;BME280;3244;42.708;23.288;2023-04-01T07:38:59;93805.19;;;15.74;49.31
6423;BME280;3244;42.708;23.288;2023-04-01T07:41:42;93807.88;;;15.72;49.93
6423;BME280;3244;42.708;23.288;2023-04-01T07:44:21;93816.16;;;15.87;50.01
6423;BME280;3244;42.708;23.288;2023-04-01T07:47:05;93805.47;;;15.93;49.56
6423;BME280;3244;42.708;23.288;2023-04-01T07:49:42;93797.00;;;16.04;49.64
6423;BME280;3244;42.708;23.288;2023-04-01T07:52:18;93792.19;;;16.10;49.36
6423;BME280;3244;42.708;23.288;2023-04-01T07:54:52;93784.28;;;16.13;49.16
6423;BME280;3244;42.708;23.288;2023-04-01T07:57:24;93786.25;;;16.10;49.71
6423;BME280;3244;42.708;23.288;2023-04-01T07:59:59;93782.53;;;16.14;50.07
6423;BME280;3244;42.708;23.288;2023-04-01T08:02:38;93778.22;;;16.14;49.90
6423;BME280;3244;42.708;23.288;2023-04-01T08:05:18;93776.16;;;16.08;50.33
6423;BME280;3244;42.708;23.288;2023-04-01T08:07:57;93775.91;;;16.22;49.89
6423;BME280;3244;42.708;23.288;2023-04-01T08:10:31;93766.81;;;16.29;49.84
6423;BME280;3244;42.708;23.288;2023-04-01T08:13:09;93771.94;;;16.29;49.86
6423;BME280;3244;42.708;23.288;2023-04-01T08:15:44;93760.97;;;16.39;49.80
6423;BME280;3244;42.708;23.288;2023-04-01T08:18:21;93760.06;;;16.51;49.88
6423;BME280;3244;42.708;23.288;2023-04-01T08:20:57;93737.75;;;16.62;49.47
6423;BME280;3244;42.708;23.288;2023-04-01T08:23:27;93728.78;;;16.68;49.03
6423;BME280;3244;42.708;23.288;2023-04-01T08:26:00;93736.44;;;16.90;48.86
6423;BME280;3244;42.708;23.288;2023-04-01T08:28:32;93740.06;;;17.20;48.59
6423;BME280;3244;42.708;23.288;2023-04-01T08:31:04;93730.13;;;17.47;47.85
6423;BME280;3244;42.708;23.288;2023-04-01T08:33:33;93715.28;;;17.92;47.04
6423;BME280;3244;42.708;23.288;2023-04-01T08:36:03;93703.13;;;18.34;45.54
6423;BME280;3244;42.708;23.288;2023-04-01T08:38:36;93693.25;;;19.28;43.91
6423;BME280;3244;42.708;23.288;2023-04-01T08:41:15;93680.81;;;21.60;39.32
6423;BME280;3244;42.708;23.288;2023-04-01T08:44:15;93659.03;;;27.20;30.54
6423;BME280;3244;42.708;23.288;2023-04-01T08:47:13;93654.72;;;32.65;23.18
6423;BME280;3244;42.708;23.288;2023-04-01T08:50:21;93638.25;;;36.06;19.45
6423;BME280;3244;42.708;23.288;2023-04-01T08:52:53;93628.50;;;36.89;18.29
6423;BME280;3244;42.708;23.288;2023-04-01T08:55:32;93632.75;;;36.68;17.83
6423;BME280;3244;42.708;23.288;2023-04-01T09:01:17;93649.47;;;35.97;17.37
6423;BME280;3244;42.708;23.288;2023-04-01T09:04:11;93660.06;;;33.55;19.45
6423;BME280;3244;42.708;23.288;2023-04-01T09:06:48;93648.63;;;30.90;21.44
6423;BME280;3244;42.708;23.288;2023-04-01T09:09:41;93657.22;;;28.60;24.43
6423;BME280;3244;42.708;23.288;2023-04-01T09:12:32;93646.38;;;26.66;25.98
6423;BME280;3244;42.708;23.288;2023-04-01T09:15:26;93644.31;;;25.13;28.36
6423;BME280;3244;42.708;23.288;2023-04-01T09:18:14;93649.06;;;24.00;29.66
6423;BME280;3244;42.708;23.288;2023-04-01T09:21:17;93646.84;;;23.16;31.32
6423;BME280;3244;42.708;23.288;2023-04-01T09:24:19;93645.56;;;22.45;32.29
6423;BME280;3244;42.708;23.288;2023-04-01T09:27:03;93636.72;;;21.88;33.64
6423;BME280;3244;42.708;23.288;2023-04-01T09:29:43;93617.66;;;21.37;34.50
6423;BME280;3244;42.708;23.288;2023-04-01T09:32:32;93630.47;;;21.03;34.96
6423;BME280;3244;42.708;23.288;2023-04-01T09:35:19;93629.81;;;20.83;35.58
6423;BME280;3244;42.708;23.288;2023-04-01T09:37:53;93628.78;;;20.76;35.74
6423;BME280;3244;42.708;23.288;2023-04-01T09:40:30;93616.38;;;20.62;35.83
6423;BME280;3244;42.708;23.288;2023-04-01T09:43:18;93607.44;;;20.56;36.39
6423;BME280;3244;42.708;23.288;2023-04-01T09:51:39;93602.00;;;20.59;36.31
6423;BME280;3244;42.708;23.288;2023-04-01T09:54:26;93586.22;;;20.45;35.98
6423;BME280;3244;42.708;23.288;2023-04-01T09:57:27;93575.38;;;20.41;37.13
6423;BME280;3244;42.708;23.288;2023-04-01T10:04:04;93573.03;;;20.48;36.09
6423;BME280;3244;42.708;23.288;2023-04-01T10:07:06;93568.16;;;20.45;35.28
6423;BME280;3244;42.708;23.288;2023-04-01T10:13:46;93547.59;;;20.08;35.78
6423;BME280;3244;42.708;23.288;2023-04-01T10:16:30;93546.34;;;20.12;33.46
6423;BME280;3244;42.708;23.288;2023-04-01T10:19:43;93548.78;;;20.13;34.39
6423;BME280;3244;42.708;23.288;2023-04-01T10:22:44;93533.81;;;19.99;35.96
6423;BME280;3244;42.708;23.288;2023-04-01T10:34:56;93529.44;;;18.88;38.03
6423;BME280;3244;42.708;23.288;2023-04-01T10:40:41;93526.91;;;18.69;38.11
6423;BME280;3244;42.708;23.288;2023-04-01T10:46:43;93524.44;;;18.00;40.70
6423;BME280;3244;42.708;23.288;2023-04-01T10:49:37;93511.25;;;17.64;42.54
6423;BME280;3244;42.708;23.288;2023-04-01T10:52:40;93512.88;;;17.35;42.81
6423;BME280;3244;42.708;23.288;2023-04-01T10:55:42;93513.53;;;17.37;43.03
6423;BME280;3244;42.708;23.288;2023-04-01T10:58:38;93514.03;;;17.21;43.20
6423;BME280;3244;42.708;23.288;2023-04-01T11:07:52;93493.34;;;17.53;42.17
6423;BME280;3244;42.708;23.288;2023-04-01T11:10:54;93494.97;;;17.64;42.05
6423;BME280;3244;42.708;23.288;2023-04-01T11:16:47;93513.97;;;17.73;41.84
6423;BME280;3244;42.708;23.288;2023-04-01T11:19:48;93504.78;;;17.89;41.59
6423;BME280;3244;42.708;23.288;2023-04-01T11:22:50;93509.38;;;17.86;41.45
6423;BME280;3244;42.708;23.288;2023-04-01T11:25:45;93527.75;;;17.72;42.04
6423;BME280;3244;42.708;23.288;2023-04-01T11:28:42;93548.06;;;17.75;42.62
6423;BME280;3244;42.708;23.288;2023-04-01T11:34:16;93598.56;;;17.64;44.89
6423;BME280;3244;42.708;23.288;2023-04-01T11:36:56;93621.13;;;17.40;45.76
6423;BME280;3244;42.708;23.288;2023-04-01T11:39:33;93614.03;;;17.23;50.35
6423;BME280;3244;42.708;23.288;2023-04-01T11:42:14;93667.97;;;17.12;54.72
6423;BME280;3244;42.708;23.288;2023-04-01T11:44:53;93689.59;;;16.77;58.66
6423;BME280;3244;42.708;23.288;2023-04-01T11:47:41;93715.31;;;16.10;62.11
6423;BME280;3244;42.708;23.288;2023-04-01T11:50:20;93719.47;;;15.55;64.43
6423;BME280;3244;42.708;23.288;2023-04-01T11:53:13;93739.13;;;15.20;66.02
6423;BME280;3244;42.708;23.288;2023-04-01T11:55:58;93745.41;;;14.92;67.93
6423;BME280;3244;42.708;23.288;2023-04-01T11:58:36;93760.94;;;14.78;68.99
6423;BME280;3244;42.708;23.288;2023-04-01T12:01:21;93771.56;;;14.72;69.29
6423;BME280;3244;42.708;23.288;2023-04-01T12:04:04;93780.88;;;14.73;69.94
6423;BME280;3244;42.708;23.288;2023-04-01T12:06:36;93775.78;;;14.73;70.22
6423;BME280;3244;42.708;23.288;2023-04-01T12:09:14;93773.53;;;14.68;70.80
6423;BME280;3244;42.708;23.288;2023-04-01T12:11:50;93750.72;;;14.65;71.60
6423;BME280;3244;42.708;23.288;2023-04-01T12:14:22;93758.97;;;14.81;72.45
6423;BME280;3244;42.708;23.288;2023-04-01T12:16:58;93749.81;;;15.14;71.54
6423;BME280;3244;42.708;23.288;2023-04-01T12:19:35;93739.41;;;15.39;71.10
6423;BME280;3244;42.708;23.288;2023-04-01T12:22:27;93739.03;;;15.68;70.93
6423;BME280;3244;42.708;23.288;2023-04-01T12:25:03;93747.00;;;16.20;70.50
6423;BME280;3244;42.708;23.288;2023-04-01T12:27:38;93745.31;;;16.86;67.41
6423;BME280;3244;42.708;23.288;2023-04-01T12:30:18;93749.38;;;16.89;66.34
6423;BME280;3244;42.708;23.288;2023-04-01T12:32:56;93757.13;;;16.66;66.30
6423;BME280;3244;42.708;23.288;2023-04-01T12:35:31;93766.59;;;16.32;67.95
6423;BME280;3244;42.708;23.288;2023-04-01T12:38:13;93773.19;;;15.79;69.33
6423;BME280;3244;42.708;23.288;2023-04-01T12:40:50;93762.44;;;15.39;71.38
6423;BME280;3244;42.708;23.288;2023-04-01T12:43:36;93758.88;;;15.07;71.69
6423;BME280;3244;42.708;23.288;2023-04-01T12:46:15;93752.84;;;14.84;73.56
6423;BME280;3244;42.708;23.288;2023-04-01T12:49:12;93752.88;;;14.71;73.72
6423;BME280;3244;42.708;23.288;2023-04-01T12:52:05;93753.78;;;14.70;73.87
6423;BME280;3244;42.708;23.288;2023-04-01T12:54:59;93743.94;;;14.53;74.72
6423;BME280;3244;42.708;23.288;2023-04-01T12:58:06;93722.88;;;14.37;75.50
6423;BME280;3244;42.708;23.288;2023-04-01T13:01:07;93708.78;;;14.44;75.59
6423;BME280;3244;42.708;23.288;2023-04-01T13:03:50;93710.97;;;14.24;76.84
6423;BME280;3244;42.708;23.288;2023-04-01T13:06:29;93711.88;;;14.23;77.35
6423;BME280;3244;42.708;23.288;2023-04-01T13:09:06;93703.09;;;14.27;77.36
6423;BME280;3244;42.708;23.288;2023-04-01T13:11:56;93711.63;;;14.52;76.11
6423;BME280;3244;42.708;23.288;2023-04-01T13:14:36;93692.09;;;14.75;76.50
6423;BME280;3244;42.708;23.288;2023-04-01T13:17:13;93692.09;;;14.75;76.66
6423;BME280;3244;42.708;23.288;2023-04-01T13:19:47;93692.34;;;15.07;75.27
6423;BME280;3244;42.708;23.288;2023-04-01T13:22:21;93686.81;;;15.35;73.75
6423;BME280;3244;42.708;23.288;2023-04-01T13:24:51;93689.47;;;15.57;72.51
6423;BME280;3244;42.708;23.288;2023-04-01T13:27:29;93669.44;;;15.85;71.51
6423;BME280;3244;42.708;23.288;2023-04-01T13:30:07;93652.44;;;16.06;70.53
6423;BME280;3244;42.708;23.288;2023-04-01T13:32:47;93655.41;;;16.33;70.33
6423;BME280;3244;42.708;23.288;2023-04-01T13:35:26;93655.16;;;16.37;68.26
6423;BME280;3244;42.708;23.288;2023-04-01T13:38:12;93643.97;;;16.49;67.95
6423;BME280;3244;42.708;23.288;2023-04-01T13:40:50;93625.59;;;16.32;68.22
6423;BME280;3244;42.708;23.288;2023-04-01T13:43:22;93622.81;;;16.13;66.44
6423;BME280;3244;42.708;23.288;2023-04-01T13:46:06;93616.09;;;16.01;67.47
6423;BME280;3244;42.708;23.288;2023-04-01T13:49:12;93602.38;;;16.02;65.16
6423;BME280;3244;42.708;23.288;2023-04-01T13:52:00;93601.06;;;16.08;64.01
6423;BME280;3244;42.708;23.288;2023-04-01T13:54:50;93599.88;;;16.23;63.38
6423;BME280;3244;42.708;23.288;2023-04-01T13:57:28;93598.13;;;16.23;60.38
6423;BME280;3244;42.708;23.288;2023-04-01T14:00:31;93593.00;;;16.23;61.52
6423;BME280;3244;42.708;23.288;2023-04-01T14:03:20;93593.09;;;16.33;59.13
6423;BME280;3244;42.708;23.288;2023-04-01T14:11:53;93587.75;;;16.14;56.39
6423;BME280;3244;42.708;23.288;2023-04-01T14:14:33;93582.41;;;16.17;57.29
6423;BME280;3244;42.708;23.288;2023-04-01T14:17:18;93579.38;;;16.12;57.30
6423;BME280;3244;42.708;23.288;2023-04-01T14:20:05;93569.81;;;16.14;56.04
6423;BME280;3244;42.708;23.288;2023-04-01T14:22:46;93565.97;;;16.19;56.62
6423;BME280;3244;42.708;23.288;2023-04-01T14:25:38;93550.03;;;16.16;57.36
6423;BME280;3244;42.708;23.288;2023-04-01T14:28:15;93555.25;;;16.25;56.08
6423;BME280;3244;42.708;23.288;2023-04-01T14:30:54;93548.19;;;16.39;56.31
6423;BME280;3244;42.708;23.288;2023-04-01T14:33:34;93538.63;;;16.41;55.61
6423;BME280;3244;42.708;23.288;2023-04-01T14:36:26;93541.41;;;16.49;55.19
6423;BME280;3244;42.708;23.288;2023-04-01T14:39:00;93545.94;;;16.77;54.11
6423;BME280;3244;42.708;23.288;2023-04-01T14:41:44;93539.09;;;16.87;54.51
6423;BME280;3244;42.708;23.288;2023-04-01T14:44:33;93538.50;;;16.95;53.88
6423;BME280;3244;42.708;23.288;2023-04-01T14:47:15;93532.16;;;16.99;58.22
6423;BME280;3244;42.708;23.288;2023-04-01T14:49:51;93542.94;;;16.93;59.24
6423;BME280;3244;42.708;23.288;2023-04-01T14:52:24;93544.31;;;16.76;59.69